Airfield :
LOGIN :

Register | Disclaimer

   EN    FR    IT 

 










Legend :    VFR   Marginal VFR   IFR   Intensive IFR   Very Intensive IFR
Visi :
Ceiling :
>= 8 km
>= 3000ft
5 to 8 km
1000 to 3000 ft
1500m to 5 km
500 to 1000 ft
800 to 1500m
200 to 500 ft
< 800m
< 200 ft
Symbols :   Thunderstorms  Fog  Heavy snow  Heavy precipitations  Wind > 20 kt
SIGMETs :     Misc.  Thunderstorms  Icing  Turbulence  Mountain Waves  Volcanic Ashes






- Airport Elevation : 268 ft
- IATA code : BFS


EGAA - Belfast Aldergrove

CURRENT METAR :
  • 282350Z 22010KT 9999 FEW006 BKN012 02/01 Q0998

EXPIRED METARs :
  • 282320Z 22011KT 190V250 9999 SCT010 SCT020 02/01 Q0997
  • 282250Z 23012KT 9999 SCT008 BKN012 02/02 Q0997
  • 282220Z 22010KT 9999 SCT006 SCT010 BKN047 02/01 Q0997
  • 282150Z 23010KT 9999 SCT010 BKN018 02/02 Q0997
  • 282120Z 24013KT 9999 FEW012 SCT040 03/02 Q0996

TAF TAF EGAA
Valid from the 29 at 00:00 until the 30 at 00:00 UTC


282259Z 2900/2924 24012KT 9999 FEW012 SCT020
PROB30
TEMPO 2900/2908 25015G25KT 5000 SHRA -SHRASN BKN008
BECMG 2908/2911 23018G28KT
TEMPO 2908/2918 7000 -RADZ BKN012
PROB30
TEMPO 2918/2924 BKN012



MET'MAP, your aeronautical weather chart ! - Copyright ORBIFLY December 2007 - Disclaimer

ORBIFLY MET'MAP TEAM :

Programming & Development : Alexandra Zaïnal
Concept & original design : Baudouin d'Aumeries
Assistance for programming : Marc-Olivier Méhu
Technical & hardware support : Manuel Goepfert

Contact : metmap@orbifly.com




SOURCES & CREDITS :

   NOAA